Time;durP1;ratioP1;P1;durP2;ratioP2;P2;SDS_P1;SDS_P2;PMS_P1;PMS_P2;Temp;Humidity;BMP_temperature;BMP_pressure;BME280_temperature;BME280_humidity;BME280_pressure;Samples;Min_cycle;Max_cycle;Signal;HPM_P1;HPM_P2
2023/04/22 00:01:28;;;;;;;7.32;5.38;;;13.30;99.90;;;;;;5074963;28;20044;-82
2023/04/22 00:03:53;;;;;;;6.50;5.40;;;13.30;99.90;;;;;;5074856;28;20414;-81
2023/04/22 00:06:19;;;;;;;6.38;5.60;;;13.20;99.90;;;;;;5074797;28;20083;-82
2023/04/22 00:08:45;;;;;;;6.65;5.25;;;13.20;99.90;;;;;;5074763;28;20047;-82
2023/04/22 00:11:11;;;;;;;5.70;5.20;;;13.20;99.90;;;;;;5074428;28;20040;-82
2023/04/22 00:13:36;;;;;;;7.07;5.82;;;13.10;99.90;;;;;;5074880;28;20055;-82
2023/04/22 00:16:03;;;;;;;6.25;5.65;;;13.10;99.90;;;;;;5074573;28;20082;-82
2023/04/22 00:18:29;;;;;;;6.30;5.70;;;13.10;99.90;;;;;;5074693;28;20044;-82
2023/04/22 00:20:55;;;;;;;7.93;6.03;;;13.00;99.90;;;;;;5074328;28;20185;-82
2023/04/22 00:23:20;;;;;;;6.65;5.22;;;13.00;99.90;;;;;;5074318;28;20049;-81
2023/04/22 00:25:46;;;;;;;5.93;5.40;;;12.90;99.90;;;;;;5073884;28;20051;-81
2023/04/22 00:28:12;;;;;;;7.38;5.35;;;12.90;99.90;;;;;;5073582;28;20142;-82
2023/04/22 00:30:38;;;;;;;7.65;5.80;;;12.90;99.90;;;;;;5073453;28;20137;-83
2023/04/22 00:33:03;;;;;;;6.53;5.78;;;12.90;99.90;;;;;;5074242;28;20051;-82
2023/04/22 00:35:29;;;;;;;6.68;5.25;;;12.90;99.90;;;;;;5074209;28;20131;-81
2023/04/22 00:37:55;;;;;;;7.70;5.47;;;12.80;99.90;;;;;;5074092;28;20048;-81
2023/04/22 00:40:21;;;;;;;5.53;5.00;;;12.70;99.90;;;;;;5074016;28;20115;-81
2023/04/22 00:42:49;;;;;;;6.30;5.70;;;12.70;99.90;;;;;;5074017;28;20097;-82
2023/04/22 00:45:16;;;;;;;6.85;5.97;;;12.60;99.90;;;;;;5073031;28;20524;-82
2023/04/22 00:47:44;;;;;;;6.78;5.95;;;12.60;99.90;;;;;;5074124;28;20118;-82
2023/04/22 00:50:10;;;;;;;6.22;5.00;;;12.50;99.90;;;;;;5073823;28;20102;-82
2023/04/22 00:52:36;;;;;;;5.88;5.38;;;12.50;99.90;;;;;;5072808;28;20048;-79
2023/04/22 00:55:02;;;;;;;6.68;5.32;;;12.40;99.90;;;;;;5073215;28;20043;-81
2023/04/22 00:57:30;;;;;;;14.13;10.25;;;12.40;99.90;;;;;;5074358;28;20044;-81
2023/04/22 00:59:56;;;;;;;9.07;7.03;;;12.40;99.90;;;;;;5074114;28;20485;-82
2023/04/22 01:02:22;;;;;;;7.60;6.68;;;12.40;99.90;;;;;;5074477;28;20044;-81
2023/04/22 01:04:48;;;;;;;6.88;5.88;;;12.40;99.90;;;;;;5074345;28;20477;-81
2023/04/22 01:07:14;;;;;;;7.05;5.72;;;12.40;99.90;;;;;;5074339;28;20055;-81
2023/04/22 01:09:40;;;;;;;6.85;6.03;;;12.40;99.90;;;;;;5073957;28;20369;-81
2023/04/22 01:12:06;;;;;;;6.57;5.88;;;12.40;99.90;;;;;;5072969;28;20045;-82
2023/04/22 01:14:33;;;;;;;8.88;6.28;;;12.40;99.90;;;;;;5072867;28;20094;-82
2023/04/22 01:16:59;;;;;;;6.30;5.70;;;12.40;99.90;;;;;;5073785;28;20091;-82
2023/04/22 01:19:25;;;;;;;7.45;6.18;;;12.30;99.90;;;;;;5074597;28;20083;-83
2023/04/22 01:21:51;;;;;;;7.22;6.07;;;12.30;99.90;;;;;;5074048;28;20400;-82
2023/04/22 01:24:18;;;;;;;10.65;6.68;;;12.30;99.90;;;;;;5072575;28;20044;-82
2023/04/22 01:26:44;;;;;;;8.75;6.00;;;12.30;99.90;;;;;;5076690;28;20485;-82
2023/04/22 01:29:10;;;;;;;8.48;5.45;;;12.30;99.90;;;;;;5075702;28;20064;-82
2023/04/22 01:31:36;;;;;;;8.77;6.90;;;12.20;99.90;;;;;;5075857;28;20045;-83
2023/04/22 01:34:02;;;;;;;8.27;6.35;;;12.30;99.90;;;;;;5073164;28;20051;-82
2023/04/22 01:36:28;;;;;;;8.82;7.20;;;12.20;99.90;;;;;;5073955;28;20048;-83
2023/04/22 01:38:53;;;;;;;8.77;7.25;;;12.20;99.90;;;;;;5072605;28;20049;-81
2023/04/22 01:41:20;;;;;;;8.65;6.95;;;12.20;99.90;;;;;;5072653;28;20079;-82
2023/04/22 01:43:45;;;;;;;8.73;7.05;;;12.20;99.90;;;;;;5073397;28;20103;-82
2023/04/22 01:46:11;;;;;;;7.95;6.10;;;12.20;99.90;;;;;;5072364;28;20084;-82
2023/04/22 01:48:37;;;;;;;9.38;6.47;;;12.20;99.90;;;;;;5073601;28;20044;-84
2023/04/22 01:51:03;;;;;;;7.55;6.75;;;12.20;99.90;;;;;;5073492;28;20040;-85
2023/04/22 01:53:29;;;;;;;8.10;6.22;;;12.20;99.90;;;;;;5073364;28;20044;-84
2023/04/22 01:55:55;;;;;;;7.78;7.05;;;12.10;99.90;;;;;;5071906;28;20051;-83
2023/04/22 01:58:20;;;;;;;8.30;7.07;;;12.10;99.90;;;;;;5073748;28;20102;-83
2023/04/22 02:00:46;;;;;;;7.65;6.85;;;12.10;99.90;;;;;;5073349;28;20040;-83
2023/04/22 02:03:12;;;;;;;7.32;6.53;;;12.00;99.90;;;;;;5073139;28;20090;-81
2023/04/22 02:05:38;;;;;;;9.30;7.05;;;11.90;99.90;;;;;;5072400;28;20044;-82
2023/04/22 02:08:04;;;;;;;11.25;7.90;;;12.80;99.90;;;;;;5073140;28;20047;-81
2023/04/22 02:10:30;;;;;;;9.30;7.70;;;11.80;99.90;;;;;;5073572;28;20153;-81
2023/04/22 02:12:55;;;;;;;8.45;7.60;;;11.70;99.90;;;;;;5072431;28;20056;-81
2023/04/22 02:15:21;;;;;;;8.82;7.75;;;11.60;99.90;;;;;;5073220;28;20045;-79
2023/04/22 02:17:48;;;;;;;8.45;7.55;;;11.60;99.90;;;;;;5072209;28;20047;-78
2023/04/22 02:20:13;;;;;;;8.73;7.60;;;11.50;99.90;;;;;;5073101;28;20067;-79
2023/04/22 02:22:42;;;;;;;8.57;7.63;;;11.40;99.90;;;;;;5072778;28;20048;-79
2023/04/22 02:25:09;;;;;;;10.45;8.13;;;11.40;99.90;;;;;;5072411;28;20092;-79
2023/04/22 02:27:35;;;;;;;8.45;7.55;;;11.40;99.90;;;;;;5073151;28;20374;-80
2023/04/22 02:30:02;;;;;;;8.63;7.43;;;11.20;99.90;;;;;;5072102;28;20052;-79
2023/04/22 02:32:28;;;;;;;9.23;8.07;;;11.20;99.90;;;;;;5072822;28;20044;-79
2023/04/22 02:34:54;;;;;;;8.82;7.97;;;11.10;99.90;;;;;;5072687;28;20088;-79
2023/04/22 02:37:21;;;;;;;8.52;7.63;;;11.10;99.90;;;;;;5072590;28;20044;-79
2023/04/22 02:39:48;;;;;;;8.77;7.40;;;11.00;99.90;;;;;;5072865;28;20053;-79
2023/04/22 02:42:14;;;;;;;8.68;7.88;;;10.90;99.90;;;;;;5071667;28;20050;-79
2023/04/22 02:44:40;;;;;;;10.52;8.25;;;10.90;99.90;;;;;;5071253;28;20075;-79
2023/04/22 02:47:06;;;;;;;8.63;7.72;;;10.90;99.90;;;;;;5072854;28;20080;-79
2023/04/22 02:49:32;;;;;;;11.30;8.73;;;10.90;99.90;;;;;;5072557;28;20057;-78
2023/04/22 02:51:58;;;;;;;8.38;7.57;;;10.80;99.90;;;;;;5073601;28;20037;-79
2023/04/22 02:54:23;;;;;;;9.57;7.72;;;10.70;99.90;;;;;;5075315;28;20052;-79
2023/04/22 02:56:49;;;;;;;12.77;8.45;;;10.70;99.90;;;;;;5058463;28;20131;-79
2023/04/22 02:59:15;;;;;;;8.43;7.28;;;10.60;99.90;;;;;;5076122;28;20044;-79
2023/04/22 03:01:41;;;;;;;12.57;8.70;;;10.60;99.90;;;;;;5076354;28;20075;-80
2023/04/22 03:04:06;;;;;;;9.35;8.25;;;10.50;99.90;;;;;;5076111;28;20045;-80
2023/04/22 03:06:32;;;;;;;8.77;7.80;;;10.50;99.90;;;;;;5075120;28;20051;-80
2023/04/22 03:08:58;;;;;;;8.98;7.90;;;10.50;99.90;;;;;;5079280;28;20107;-80
2023/04/22 03:11:23;;;;;;;10.65;7.75;;;10.40;99.90;;;;;;5082514;28;20048;-81
2023/04/22 03:13:49;;;;;;;8.93;8.02;;;10.40;99.90;;;;;;5079575;28;20117;-80
2023/04/22 03:16:18;;;;;;;8.20;7.40;;;10.30;99.90;;;;;;5077775;28;20049;-80
2023/04/22 03:18:43;;;;;;;8.73;7.90;;;10.30;99.90;;;;;;5078595;28;20404;-81
2023/04/22 03:21:09;;;;;;;10.98;8.60;;;10.20;99.90;;;;;;5077459;28;20123;-80
2023/04/22 03:23:35;;;;;;;9.65;8.68;;;10.20;99.90;;;;;;5076755;28;20118;-80
2023/04/22 03:26:00;;;;;;;9.90;8.90;;;10.10;99.90;;;;;;5075591;28;20132;-80
2023/04/22 03:28:26;;;;;;;10.52;9.43;;;10.10;99.90;;;;;;5075885;28;20048;-80
2023/04/22 03:30:52;;;;;;;10.90;9.05;;;10.00;99.90;;;;;;5075617;28;20466;-80
2023/04/22 03:33:17;;;;;;;11.40;10.10;;;10.00;99.90;;;;;;5075759;28;20047;-81
2023/04/22 03:35:46;;;;;;;12.07;10.30;;;10.00;99.90;;;;;;5075455;28;20414;-80
2023/04/22 03:38:11;;;;;;;11.95;10.80;;;9.90;99.90;;;;;;5075528;28;20508;-80
2023/04/22 03:40:37;;;;;;;12.07;10.82;;;9.80;99.90;;;;;;5075501;28;20091;-80
2023/04/22 03:43:03;;;;;;;11.98;10.45;;;10.00;99.90;;;;;;5075712;28;20048;-81
2023/04/22 03:45:28;;;;;;;11.35;10.07;;;9.90;99.90;;;;;;5075075;28;20091;-79
2023/04/22 03:47:54;;;;;;;13.93;10.50;;;9.90;99.90;;;;;;5057691;28;20056;-79
2023/04/22 03:50:20;;;;;;;12.55;9.80;;;9.90;99.90;;;;;;5074942;28;20420;-81
2023/04/22 03:52:45;;;;;;;10.63;9.52;;;9.90;99.90;;;;;;5074334;28;20127;-78
2023/04/22 03:55:11;;;;;;;11.98;9.85;;;9.90;99.90;;;;;;5073953;28;20063;-81
2023/04/22 03:57:37;;;;;;;10.23;9.23;;;9.90;99.90;;;;;;5057502;28;20044;-79
2023/04/22 04:00:03;;;;;;;13.32;10.07;;;9.90;99.90;;;;;;5074954;28;20133;-78
2023/04/22 04:02:29;;;;;;;12.05;9.88;;;10.00;99.90;;;;;;5073692;28;20083;-79
2023/04/22 04:04:54;;;;;;;12.10;10.18;;;10.00;99.90;;;;;;5073399;28;20133;-79
2023/04/22 04:07:20;;;;;;;10.75;9.65;;;10.00;99.90;;;;;;5074915;28;20127;-80
2023/04/22 04:09:46;;;;;;;14.02;10.00;;;10.10;99.90;;;;;;5075155;28;20162;-81
2023/04/22 04:12:11;;;;;;;10.75;9.65;;;10.10;99.90;;;;;;5076121;28;20070;-80
2023/04/22 04:14:37;;;;;;;11.35;10.18;;;10.10;99.90;;;;;;5077576;28;20052;-80
2023/04/22 04:17:03;;;;;;;13.60;10.65;;;10.20;99.90;;;;;;5076395;28;20047;-80
2023/04/22 04:19:28;;;;;;;11.25;9.50;;;10.20;99.90;;;;;;5077034;28;20528;-80
2023/04/22 04:21:54;;;;;;;10.95;9.52;;;10.20;99.90;;;;;;5082672;28;20040;-81
2023/04/22 04:24:20;;;;;;;10.90;9.82;;;10.20;99.90;;;;;;5081369;28;20051;-81
2023/04/22 04:26:47;;;;;;;14.20;9.93;;;10.20;99.90;;;;;;5080328;28;20076;-81
2023/04/22 04:29:13;;;;;;;11.85;10.15;;;10.20;99.90;;;;;;5082705;28;20052;-81
2023/04/22 04:31:40;;;;;;;10.75;9.65;;;10.20;99.90;;;;;;5076187;28;20405;-81
2023/04/22 04:34:06;;;;;;;11.75;10.55;;;10.20;99.90;;;;;;5074541;28;20076;-80
2023/04/22 04:36:32;;;;;;;12.90;9.93;;;10.30;99.90;;;;;;5074307;28;20119;-80
2023/04/22 04:38:58;;;;;;;10.43;9.43;;;10.30;99.90;;;;;;5073164;28;20055;-81
2023/04/22 04:41:26;;;;;;;11.15;9.60;;;10.30;99.90;;;;;;5074152;28;20044;-81
2023/04/22 04:43:52;;;;;;;11.07;9.80;;;10.30;99.90;;;;;;5073933;28;20048;-81
2023/04/22 04:46:19;;;;;;;11.68;10.48;;;10.20;99.90;;;;;;5056536;28;20162;-80
2023/04/22 04:48:45;;;;;;;11.10;10.00;;;10.30;99.90;;;;;;5073745;28;20052;-80
2023/04/22 04:51:11;;;;;;;13.05;10.35;;;10.20;99.90;;;;;;5074077;28;20055;-79
2023/04/22 04:53:37;;;;;;;12.10;10.57;;;10.20;99.90;;;;;;5073983;28;20044;-80
2023/04/22 04:56:03;;;;;;;14.48;10.82;;;10.20;99.90;;;;;;5073432;28;20147;-79
2023/04/22 04:58:29;;;;;;;12.27;10.32;;;10.20;99.90;;;;;;5074297;28;20166;-79
2023/04/22 05:00:54;;;;;;;11.63;10.20;;;10.20;99.90;;;;;;5073549;28;20440;-79
2023/04/22 05:03:20;;;;;;;11.50;10.30;;;10.20;99.90;;;;;;5073613;28;20040;-78
2023/04/22 05:05:47;;;;;;;11.23;10.07;;;10.20;99.90;;;;;;5073898;28;20479;-79
2023/04/22 05:08:13;;;;;;;13.38;10.93;;;10.20;99.90;;;;;;5072855;28;20056;-79
2023/04/22 05:10:39;;;;;;;11.82;10.27;;;10.20;99.90;;;;;;5073697;28;20136;-79
2023/04/22 05:13:05;;;;;;;11.07;9.85;;;10.10;99.90;;;;;;5072649;28;20076;-80
2023/04/22 05:15:30;;;;;;;11.77;10.02;;;10.10;99.90;;;;;;5073453;28;20464;-80
2023/04/22 05:17:56;;;;;;;12.10;10.77;;;10.10;99.90;;;;;;5073660;28;20098;-79
2023/04/22 05:20:22;;;;;;;12.05;10.85;;;10.10;99.90;;;;;;5073373;28;20041;-80
2023/04/22 05:22:47;;;;;;;11.57;10.20;;;10.10;99.90;;;;;;5073550;28;20048;-80
2023/04/22 05:25:13;;;;;;;10.50;9.48;;;10.10;99.90;;;;;;5072708;28;20040;-80
2023/04/22 05:27:40;;;;;;;12.15;10.68;;;10.20;99.90;;;;;;5072224;28;20060;-81
2023/04/22 05:30:06;;;;;;;11.57;10.02;;;10.20;99.90;;;;;;5073574;28;20048;-82
2023/04/22 05:32:32;;;;;;;12.75;10.18;;;10.20;99.90;;;;;;5072341;28;20084;-82
2023/04/22 05:34:57;;;;;;;12.43;11.13;;;10.20;99.90;;;;;;5073818;28;20475;-82
2023/04/22 05:37:23;;;;;;;12.15;10.85;;;10.30;99.90;;;;;;5073643;28;20050;-82
2023/04/22 05:39:49;;;;;;;15.75;10.90;;;10.40;99.90;;;;;;5072423;28;20052;-83
2023/04/22 05:42:14;;;;;;;12.43;10.20;;;10.40;99.90;;;;;;5072589;28;20499;-83
2023/04/22 05:44:40;;;;;;;12.25;10.95;;;10.40;99.90;;;;;;5073195;28;20057;-82
2023/04/22 05:47:06;;;;;;;11.57;10.30;;;10.50;99.90;;;;;;5073306;28;20121;-82
2023/04/22 05:49:31;;;;;;;12.73;10.63;;;10.60;99.90;;;;;;5073543;28;20040;-83
2023/04/22 05:51:57;;;;;;;12.35;10.20;;;10.70;99.90;;;;;;5073305;28;20044;-84
2023/04/22 05:54:23;;;;;;;11.75;10.15;;;10.80;99.90;;;;;;5072922;28;20040;-84
2023/04/22 05:56:48;;;;;;;12.50;10.77;;;10.80;99.90;;;;;;5073464;28;20050;-84
2023/04/22 05:59:14;;;;;;;10.43;9.43;;;10.90;99.90;;;;;;5072980;28;20126;-83
2023/04/22 06:01:40;;;;;;;13.45;10.77;;;11.00;99.90;;;;;;5072993;28;20037;-82
2023/04/22 06:04:08;;;;;;;11.55;10.32;;;11.00;99.90;;;;;;5073288;28;20517;-83
2023/04/22 06:06:34;;;;;;;12.38;10.20;;;11.10;99.90;;;;;;5073163;28;20461;-83
2023/04/22 06:09:00;;;;;;;12.10;9.98;;;11.10;99.90;;;;;;5073305;28;20109;-82
2023/04/22 06:11:26;;;;;;;10.85;9.70;;;11.20;99.90;;;;;;5073185;28;20055;-83
2023/04/22 06:13:52;;;;;;;11.38;9.73;;;11.20;99.90;;;;;;5073020;28;20041;-83
2023/04/22 06:16:18;;;;;;;11.23;9.93;;;11.30;99.90;;;;;;5073034;28;20119;-83
2023/04/22 06:18:44;;;;;;;11.98;10.07;;;11.30;99.90;;;;;;5072691;28;20639;-83
2023/04/22 06:21:10;;;;;;;10.15;9.15;;;11.40;99.90;;;;;;5072395;28;20147;-83
2023/04/22 06:23:35;;;;;;;10.32;9.30;;;11.40;99.90;;;;;;5071872;28;20052;-83
2023/04/22 06:26:01;;;;;;;11.77;9.10;;;11.50;99.90;;;;;;5073241;28;20044;-83
2023/04/22 06:28:27;;;;;;;10.45;9.35;;;11.50;99.90;;;;;;5076829;28;20040;-83
2023/04/22 06:30:53;;;;;;;11.30;10.00;;;11.60;99.90;;;;;;5076678;28;20051;-83
2023/04/22 06:33:19;;;;;;;10.95;9.65;;;11.60;99.90;;;;;;5075538;28;20037;-84
2023/04/22 06:35:44;;;;;;;12.63;9.20;;;11.70;99.90;;;;;;5076749;28;20054;-84
2023/04/22 06:38:10;;;;;;;10.77;9.30;;;11.70;99.90;;;;;;5076777;28;20048;-85
2023/04/22 06:40:36;;;;;;;10.82;9.57;;;11.80;99.90;;;;;;5076838;28;20088;-85
2023/04/22 06:43:02;;;;;;;11.55;9.88;;;11.80;99.90;;;;;;5076399;28;20091;-85
2023/04/22 06:45:27;;;;;;;10.32;9.18;;;11.90;99.90;;;;;;5076335;28;20059;-84
2023/04/22 06:47:53;;;;;;;10.77;9.68;;;11.90;99.90;;;;;;5076471;28;20080;-85
2023/04/22 06:50:19;;;;;;;11.07;9.45;;;12.00;99.90;;;;;;5076927;28;20055;-86
2023/04/22 06:52:45;;;;;;;11.63;9.57;;;12.00;99.90;;;;;;5076366;28;20166;-85
2023/04/22 06:55:11;;;;;;;10.88;9.77;;;12.00;99.90;;;;;;5075952;28;20127;-85
2023/04/22 06:57:37;;;;;;;11.40;9.70;;;12.10;99.90;;;;;;5058694;28;20395;-85
2023/04/22 07:00:08;;;;;;;11.10;9.63;;;12.20;99.90;;;;;;5075928;28;20400;-86
2023/04/22 07:02:34;;;;;;;9.55;8.68;;;12.20;99.90;;;;;;5075151;28;20124;-86
2023/04/22 07:05:00;;;;;;;11.23;8.43;;;12.20;99.90;;;;;;5074950;28;20127;-84
2023/04/22 07:07:25;;;;;;;10.88;9.00;;;12.30;99.90;;;;;;5074825;28;20131;-84
2023/04/22 07:09:51;;;;;;;10.07;8.90;;;12.30;99.90;;;;;;5075058;28;20040;-83
2023/04/22 07:12:17;;;;;;;9.27;8.32;;;12.40;99.90;;;;;;5075904;28;20075;-82
2023/04/22 07:14:44;;;;;;;10.07;8.95;;;12.50;99.90;;;;;;5076587;28;20090;-81
2023/04/22 07:17:10;;;;;;;10.45;8.57;;;12.50;99.90;;;;;;5076024;28;20135;-81
2023/04/22 07:19:36;;;;;;;10.02;8.82;;;12.50;99.90;;;;;;5075874;28;20135;-82
2023/04/22 07:22:02;;;;;;;10.48;8.65;;;12.60;99.90;;;;;;5076209;28;20149;-81
2023/04/22 07:24:28;;;;;;;12.05;8.98;;;12.70;99.90;;;;;;5075113;28;20033;-81
2023/04/22 07:26:54;;;;;;;10.10;8.90;;;12.70;99.90;;;;;;5074424;28;20084;-80
2023/04/22 07:29:20;;;;;;;10.00;9.00;;;12.80;99.90;;;;;;5075430;28;20080;-81
2023/04/22 07:31:45;;;;;;;9.88;8.32;;;12.90;99.90;;;;;;5074753;28;20380;-80
2023/04/22 07:34:13;;;;;;;9.48;8.52;;;12.90;99.90;;;;;;5075794;28;20037;-80
2023/04/22 07:36:38;;;;;;;10.05;8.45;;;13.00;99.90;;;;;;5075111;28;20123;-80
2023/04/22 07:39:04;;;;;;;10.10;8.85;;;13.10;99.90;;;;;;5075343;28;20372;-81
2023/04/22 07:41:30;;;;;;;11.77;10.27;;;13.10;99.90;;;;;;5075621;28;20073;-81
2023/04/22 07:43:56;;;;;;;9.23;8.25;;;13.20;99.90;;;;;;5074741;28;20056;-78
2023/04/22 07:46:22;;;;;;;8.77;7.78;;;13.30;99.90;;;;;;5074178;28;20381;-78
2023/04/22 07:48:48;;;;;;;9.50;8.20;;;13.40;99.90;;;;;;5074133;28;20526;-79
2023/04/22 07:51:13;;;;;;;9.73;7.82;;;13.40;99.90;;;;;;5075163;28;20079;-78
2023/04/22 07:53:39;;;;;;;9.23;8.00;;;13.50;99.90;;;;;;5074588;28;20131;-79
2023/04/22 07:56:05;;;;;;;8.98;7.60;;;13.50;99.90;;;;;;5073349;28;20041;-79
2023/04/22 07:58:31;;;;;;;9.02;8.05;;;13.60;99.90;;;;;;5074547;28;20408;-79
2023/04/22 08:00:56;;;;;;;9.85;8.18;;;13.60;99.90;;;;;;5074941;28;20132;-78
2023/04/22 08:03:22;;;;;;;9.68;7.53;;;13.70;99.90;;;;;;5075071;28;20044;-80
2023/04/22 08:05:48;;;;;;;10.40;8.07;;;13.80;99.90;;;;;;5074823;28;20070;-80
2023/04/22 08:08:14;;;;;;;11.60;7.90;;;13.80;99.90;;;;;;5075214;28;20052;-79
2023/04/22 08:10:40;;;;;;;10.18;7.57;;;13.90;99.90;;;;;;5074698;28;20547;-80
2023/04/22 08:13:05;;;;;;;9.10;8.13;;;13.90;99.90;;;;;;5073613;28;20122;-83
2023/04/22 08:15:31;;;;;;;8.80;7.93;;;14.00;99.90;;;;;;5073724;28;20033;-83
2023/04/22 08:17:57;;;;;;;8.95;7.50;;;14.00;99.90;;;;;;5073565;28;20123;-82
2023/04/22 08:20:23;;;;;;;9.95;8.23;;;14.00;99.90;;;;;;5074764;28;20044;-83
2023/04/22 08:22:50;;;;;;;9.82;7.80;;;14.10;99.90;;;;;;5074550;28;20473;-83
2023/04/22 08:25:16;;;;;;;8.80;7.88;;;14.10;99.90;;;;;;5074042;28;20067;-83
2023/04/22 08:27:41;;;;;;;10.27;8.10;;;14.20;99.90;;;;;;5074462;28;20044;-82
2023/04/22 08:30:07;;;;;;;9.00;7.60;;;14.30;99.90;;;;;;5074412;28;20127;-82
2023/04/22 08:32:33;;;;;;;7.60;6.78;;;14.40;99.90;;;;;;5074445;28;20490;-86
2023/04/22 08:34:59;;;;;;;8.82;7.28;;;14.40;99.90;;;;;;5074423;28;20063;-86
2023/04/22 08:37:25;;;;;;;7.47;6.78;;;14.50;99.90;;;;;;5074549;28;20396;-85
2023/04/22 08:39:52;;;;;;;8.75;6.78;;;14.60;99.90;;;;;;5073916;28;20048;-86
2023/04/22 08:42:19;;;;;;;7.85;7.05;;;14.70;99.90;;;;;;5074342;28;20059;-83
2023/04/22 08:44:45;;;;;;;7.65;6.93;;;14.80;99.90;;;;;;5073483;28;20060;-84
2023/04/22 08:47:13;;;;;;;8.57;6.95;;;14.90;99.90;;;;;;5073896;28;20407;-82
2023/04/22 08:49:39;;;;;;;8.65;6.30;;;15.00;99.90;;;;;;5073370;28;20092;-86
2023/04/22 08:52:05;;;;;;;6.40;5.72;;;15.10;99.90;;;;;;5074065;28;20048;-86
2023/04/22 08:54:32;;;;;;;7.63;6.53;;;15.10;99.90;;;;;;5073477;28;20053;-85
2023/04/22 08:57:00;;;;;;;6.95;6.25;;;15.20;99.90;;;;;;5072668;28;20052;-77
2023/04/22 08:59:26;;;;;;;7.95;6.35;;;15.20;99.90;;;;;;5074435;28;20131;-79
2023/04/22 09:01:54;;;;;;;7.65;6.13;;;15.20;99.90;;;;;;5074138;28;20131;-77
2023/04/22 09:04:19;;;;;;;7.43;5.82;;;15.30;99.90;;;;;;5073996;28;20052;-83
2023/04/22 09:06:45;;;;;;;7.68;6.40;;;15.30;99.90;;;;;;5073727;28;20407;-82
2023/04/22 09:09:11;;;;;;;7.15;5.88;;;15.30;99.90;;;;;;5073777;28;20048;-79
2023/04/22 09:11:37;;;;;;;9.27;6.13;;;15.40;99.90;;;;;;5075212;28;20170;-82
2023/04/22 09:14:03;;;;;;;6.35;5.60;;;15.40;99.90;;;;;;5073455;28;20048;-81
2023/04/22 09:16:30;;;;;;;7.57;6.20;;;15.50;99.90;;;;;;5073803;28;20142;-82
2023/04/22 09:18:56;;;;;;;6.55;5.55;;;15.50;99.90;;;;;;5073862;28;20097;-83
2023/04/22 09:21:26;;;;;;;5.53;4.82;;;15.60;99.90;;;;;;5072789;28;20127;-83
2023/04/22 09:23:54;;;;;;;6.60;5.63;;;15.70;99.90;;;;;;5072848;28;20040;-81
2023/04/22 09:26:24;;;;;;;6.70;5.35;;;15.80;99.90;;;;;;5072541;28;20419;-81
2023/04/22 09:28:51;;;;;;;5.88;5.28;;;15.90;99.90;;;;;;5072903;28;20052;-81
2023/04/22 09:31:17;;;;;;;6.82;5.72;;;16.00;99.90;;;;;;5073152;28;20048;-82
2023/04/22 09:34:09;;;;;;;6.13;5.25;;;16.10;99.90;;;;;;5073283;28;20464;-82
2023/04/22 09:36:39;;;;;;;6.07;5.10;;;16.10;99.90;;;;;;5068996;28;20051;-82
2023/04/22 09:39:08;;;;;;;6.43;5.00;;;16.20;99.90;;;;;;5073168;28;20427;-82
2023/04/22 09:41:37;;;;;;;6.90;4.95;;;16.20;99.90;;;;;;5072863;28;20124;-84
2023/04/22 09:44:04;;;;;;;7.43;4.95;;;16.30;99.90;;;;;;5072813;28;20044;-83
2023/04/22 09:46:32;;;;;;;5.47;4.70;;;16.40;99.90;;;;;;5072763;28;20142;-82
2023/04/22 09:48:59;;;;;;;6.30;4.70;;;16.40;99.90;;;;;;5072827;28;20044;-81
2023/04/22 09:51:28;;;;;;;5.05;4.55;;;16.50;99.90;;;;;;5071365;28;20040;-82
2023/04/22 09:54:09;;;;;;;5.43;4.30;;;16.60;99.90;;;;;;5071900;28;20033;-79
2023/04/22 09:56:41;;;;;;;6.28;4.25;;;16.70;99.90;;;;;;5071098;28;20047;-79
2023/04/22 09:59:07;;;;;;;6.18;4.47;;;16.80;99.90;;;;;;5072507;28;20045;-79
2023/04/22 10:01:39;;;;;;;5.50;4.25;;;16.80;99.90;;;;;;5074711;28;20076;-79
2023/04/22 10:04:06;;;;;;;5.53;4.00;;;16.90;99.90;;;;;;5077058;28;20044;-79
2023/04/22 10:06:33;;;;;;;4.80;4.00;;;17.00;99.90;;;;;;5076410;28;20090;-79
2023/04/22 10:08:59;;;;;;;4.30;3.90;;;17.10;99.90;;;;;;5074986;28;20056;-78
2023/04/22 10:11:24;;;;;;;3.75;3.40;;;17.20;99.90;;;;;;5076273;28;20058;-80
2023/04/22 10:13:50;;;;;;;4.20;3.25;;;17.30;99.90;;;;;;5076653;28;20040;-80
2023/04/22 10:16:19;;;;;;;4.57;3.38;;;17.40;99.90;;;;;;5058400;28;20119;-80
2023/04/22 10:18:46;;;;;;;3.28;2.85;;;17.60;99.90;;;;;;5073930;28;20090;-80
2023/04/22 10:21:12;;;;;;;5.72;3.72;;;17.70;99.90;;;;;;5076377;28;20055;-75
2023/04/22 10:23:45;;;;;;;3.78;3.10;;;17.80;99.90;;;;;;5076212;28;20040;-76
2023/04/22 10:26:11;;;;;;;3.72;3.00;;;17.90;99.90;;;;;;5076141;28;20068;-78
2023/04/22 10:28:42;;;;;;;5.28;2.85;;;18.00;99.90;;;;;;5075042;28;20751;-75
2023/04/22 10:31:22;;;;;;;4.80;2.78;;;18.10;99.90;;;;;;5074473;28;20058;-76
2023/04/22 10:33:48;;;;;;;4.28;2.97;;;18.10;99.90;;;;;;5074141;28;20036;-76
2023/04/22 10:36:13;;;;;;;3.80;2.97;;;18.20;99.90;;;;;;5075842;28;20083;-76
2023/04/22 10:38:53;;;;;;;4.05;3.35;;;18.20;99.90;;;;;;5075885;28;20083;-77
2023/04/22 10:41:28;;;;;;;5.28;2.92;;;18.30;99.90;;;;;;5074543;28;20080;-76
2023/04/22 10:43:59;;;;;;;5.18;3.40;;;18.30;99.90;;;;;;5076186;28;20048;-78
2023/04/22 10:46:31;;;;;;;3.45;2.42;;;19.10;99.90;;;;;;5072279;28;20083;-77
2023/04/22 10:48:58;;;;;;;4.40;2.83;;;18.40;99.90;;;;;;5075741;28;20055;-78
2023/04/22 10:51:41;;;;;;;3.95;2.95;;;18.50;99.90;;;;;;5055654;28;20044;-79
2023/04/22 10:54:27;;;;;;;3.40;3.10;;;18.50;99.90;;;;;;5073688;28;20115;-78
2023/04/22 10:57:02;;;;;;;5.15;3.25;;;18.50;99.90;;;;;;5074273;28;20044;-78
2023/04/22 10:59:29;;;;;;;4.50;3.40;;;18.60;99.90;;;;;;5073411;28;20036;-79
2023/04/22 11:02:06;;;;;;;8.43;3.97;;;18.60;99.90;;;;;;5074796;28;20056;-75
2023/04/22 11:04:32;;;;;;;3.58;3.17;;;18.60;99.90;;;;;;5074192;28;20033;-85
2023/04/22 11:07:21;;;;;;;4.43;4.03;;;18.60;99.90;;;;;;5075287;28;20054;-78
2023/04/22 11:10:06;;;;;;;5.13;3.33;;;18.70;99.90;;;;;;5073374;28;20052;-83
2023/04/22 11:12:38;;;;;;;5.05;2.88;;;18.80;99.90;;;;;;5073152;28;20041;-77
2023/04/22 11:15:10;;;;;;;4.10;2.97;;;18.80;99.90;;;;;;5074166;28;20123;-79
2023/04/22 11:17:37;;;;;;;5.05;2.75;;;18.90;99.90;;;;;;5075519;28;20098;-79
2023/04/22 11:20:05;;;;;;;4.85;3.20;;;18.90;99.90;;;;;;5072321;28;20051;-77
2023/04/22 11:22:41;;;;;;;2.80;2.50;;;19.00;99.90;;;;;;5075137;28;20036;-76
2023/04/22 11:25:10;;;;;;;3.33;3.03;;;19.00;99.90;;;;;;5072265;28;20036;-77
2023/04/22 11:27:38;;;;;;;3.15;2.85;;;19.00;99.90;;;;;;5075339;28;20170;-78
2023/04/22 11:30:13;;;;;;;3.22;2.92;;;19.10;99.90;;;;;;5072057;28;20554;-79
2023/04/22 11:32:47;;;;;;;4.78;2.72;;;19.20;99.90;;;;;;5073891;28;20415;-77
2023/04/22 11:35:33;;;;;;;3.42;2.70;;;19.30;99.90;;;;;;5074773;28;20091;-76
2023/04/22 11:38:04;;;;;;;2.80;2.47;;;19.30;99.90;;;;;;5074325;28;20043;-78
2023/04/22 11:40:35;;;;;;;4.50;2.55;;;19.30;99.90;;;;;;5073836;28;20110;-79
2023/04/22 11:43:03;;;;;;;3.15;2.85;;;19.30;99.90;;;;;;5073671;28;20044;-77
2023/04/22 11:45:31;;;;;;;3.22;2.40;;;19.40;99.90;;;;;;5071707;28;20064;-77
2023/04/22 11:47:57;;;;;;;3.70;2.70;;;19.40;99.90;;;;;;5073603;28;20044;-76
2023/04/22 11:50:25;;;;;;;2.60;2.40;;;19.40;99.90;;;;;;5070739;28;20067;-78
2023/04/22 11:53:12;;;;;;;5.72;2.63;;;19.50;99.90;;;;;;5073651;28;20365;-77
2023/04/22 11:55:39;;;;;;;2.50;2.15;;;19.50;99.90;;;;;;5073354;28;20049;-77
2023/04/22 11:58:15;;;;;;;4.53;2.08;;;19.60;99.90;;;;;;5074625;28;20048;-75
2023/04/22 12:00:46;;;;;;;4.53;2.78;;;19.60;99.90;;;;;;5072806;28;20553;-79
2023/04/22 12:03:19;;;;;;;4.80;3.15;;;19.60;99.90;;;;;;5074347;28;20066;-80
2023/04/22 12:05:58;;;;;;;3.20;2.90;;;19.70;99.90;;;;;;5072130;28;20389;-80
2023/04/22 12:08:43;;;;;;;4.85;2.75;;;19.70;99.90;;;;;;5071854;28;20044;-80
2023/04/22 12:11:10;;;;;;;4.45;2.90;;;19.80;99.90;;;;;;5072146;28;20041;-79
2023/04/22 12:13:36;;;;;;;5.13;3.30;;;19.90;99.90;;;;;;5074279;28;20158;-77
2023/04/22 12:16:19;;;;;;;4.40;3.25;;;20.00;99.90;;;;;;5074042;28;20074;-79
2023/04/22 12:18:54;;;;;;;4.15;3.53;;;20.10;99.90;;;;;;5071787;28;20048;-80
2023/04/22 12:21:27;;;;;;;4.70;3.40;;;20.30;99.90;;;;;;5073485;28;20131;-78
2023/04/22 12:23:53;;;;;;;4.63;3.60;;;20.30;99.90;;;;;;5073117;28;20040;-77
2023/04/22 12:26:23;;;;;;;6.00;4.45;;;20.30;99.90;;;;;;5073154;28;20127;-83
2023/04/22 12:28:49;;;;;;;4.57;4.00;;;20.30;99.90;;;;;;5073921;28;20458;-79
2023/04/22 12:31:16;;;;;;;6.35;4.32;;;20.40;99.90;;;;;;5073318;28;20463;-79
2023/04/22 12:33:42;;;;;;;5.43;4.10;;;20.40;99.90;;;;;;5072386;28;20036;-78
2023/04/22 12:36:08;;;;;;;5.97;4.70;;;20.40;99.90;;;;;;5073664;28;20040;-76
2023/04/22 12:38:34;;;;;;;4.10;3.70;;;20.50;99.90;;;;;;5073779;28;20503;-78
2023/04/22 12:41:01;;;;;;;4.32;3.75;;;20.50;99.90;;;;;;5073391;28;20539;-79